sensor_id;sensor_type;location;lat;lon;timestamp;P1;durP1;ratioP1;P2;durP2;ratioP2
45842;SDS011;31563;51.744;8.252;2023-05-24T00:00:33;2.60;;;1.38;;
45842;SDS011;31563;51.744;8.252;2023-05-24T00:03:01;3.58;;;1.10;;
45842;SDS011;31563;51.744;8.252;2023-05-24T00:05:30;4.05;;;1.73;;
45842;SDS011;31563;51.744;8.252;2023-05-24T00:07:58;3.05;;;1.20;;
45842;SDS011;31563;51.744;8.252;2023-05-24T00:10:26;2.42;;;1.10;;
45842;SDS011;31563;51.744;8.252;2023-05-24T00:12:54;2.88;;;1.08;;
45842;SDS011;31563;51.744;8.252;2023-05-24T00:15:23;3.30;;;1.00;;
45842;SDS011;31563;51.744;8.252;2023-05-24T00:17:52;2.03;;;1.15;;
45842;SDS011;31563;51.744;8.252;2023-05-24T00:20:21;3.03;;;1.20;;
45842;SDS011;31563;51.744;8.252;2023-05-24T00:22:49;2.85;;;1.02;;
45842;SDS011;31563;51.744;8.252;2023-05-24T00:25:17;2.92;;;1.25;;
45842;SDS011;31563;51.744;8.252;2023-05-24T00:27:45;2.55;;;1.10;;
45842;SDS011;31563;51.744;8.252;2023-05-24T00:30:13;2.78;;;1.15;;
45842;SDS011;31563;51.744;8.252;2023-05-24T00:32:42;3.60;;;1.38;;
45842;SDS011;31563;51.744;8.252;2023-05-24T00:35:11;3.05;;;0.95;;
45842;SDS011;31563;51.744;8.252;2023-05-24T00:37:40;2.95;;;1.17;;
45842;SDS011;31563;51.744;8.252;2023-05-24T00:40:10;2.60;;;1.00;;
45842;SDS011;31563;51.744;8.252;2023-05-24T00:42:39;3.67;;;1.23;;
45842;SDS011;31563;51.744;8.252;2023-05-24T00:45:08;1.88;;;0.90;;
45842;SDS011;31563;51.744;8.252;2023-05-24T00:47:36;2.77;;;1.03;;
45842;SDS011;31563;51.744;8.252;2023-05-24T00:50:05;2.80;;;1.13;;
45842;SDS011;31563;51.744;8.252;2023-05-24T00:52:38;2.15;;;1.00;;
45842;SDS011;31563;51.744;8.252;2023-05-24T00:55:09;2.13;;;0.82;;
45842;SDS011;31563;51.744;8.252;2023-05-24T00:57:37;2.83;;;1.30;;
45842;SDS011;31563;51.744;8.252;2023-05-24T01:00:06;2.88;;;1.05;;
45842;SDS011;31563;51.744;8.252;2023-05-24T01:02:36;2.30;;;1.08;;
45842;SDS011;31563;51.744;8.252;2023-05-24T01:05:05;3.25;;;0.90;;
45842;SDS011;31563;51.744;8.252;2023-05-24T01:07:35;2.55;;;1.00;;
45842;SDS011;31563;51.744;8.252;2023-05-24T01:10:13;1.67;;;0.80;;
45842;SDS011;31563;51.744;8.252;2023-05-24T01:12:52;2.38;;;0.80;;
45842;SDS011;31563;51.744;8.252;2023-05-24T01:15:29;2.63;;;1.20;;
45842;SDS011;31563;51.744;8.252;2023-05-24T01:18:10;1.83;;;0.70;;
45842;SDS011;31563;51.744;8.252;2023-05-24T01:20:43;2.58;;;0.90;;
45842;SDS011;31563;51.744;8.252;2023-05-24T01:23:16;2.63;;;0.93;;
45842;SDS011;31563;51.744;8.252;2023-05-24T01:26:02;3.30;;;1.00;;
45842;SDS011;31563;51.744;8.252;2023-05-24T01:28:51;2.47;;;0.98;;
45842;SDS011;31563;51.744;8.252;2023-05-24T01:31:21;2.60;;;1.00;;
45842;SDS011;31563;51.744;8.252;2023-05-24T01:33:49;2.10;;;0.90;;
45842;SDS011;31563;51.744;8.252;2023-05-24T01:36:17;2.63;;;1.00;;
45842;SDS011;31563;51.744;8.252;2023-05-24T01:38:46;2.33;;;1.00;;
45842;SDS011;31563;51.744;8.252;2023-05-24T01:41:18;2.17;;;0.90;;
45842;SDS011;31563;51.744;8.252;2023-05-24T01:43:58;2.47;;;0.93;;
45842;SDS011;31563;51.744;8.252;2023-05-24T01:49:05;1.75;;;0.70;;
45842;SDS011;31563;51.744;8.252;2023-05-24T01:51:40;2.38;;;0.90;;
45842;SDS011;31563;51.744;8.252;2023-05-24T01:54:15;3.05;;;1.08;;
45842;SDS011;31563;51.744;8.252;2023-05-24T01:56:47;3.03;;;1.27;;
45842;SDS011;31563;51.744;8.252;2023-05-24T01:59:20;3.08;;;1.02;;
45842;SDS011;31563;51.744;8.252;2023-05-24T02:01:50;1.95;;;0.80;;
45842;SDS011;31563;51.744;8.252;2023-05-24T02:04:18;2.33;;;1.10;;
45842;SDS011;31563;51.744;8.252;2023-05-24T02:06:46;4.28;;;1.00;;
45842;SDS011;31563;51.744;8.252;2023-05-24T02:09:14;3.03;;;1.00;;
45842;SDS011;31563;51.744;8.252;2023-05-24T02:11:43;2.35;;;0.95;;
45842;SDS011;31563;51.744;8.252;2023-05-24T02:14:11;2.80;;;1.13;;
45842;SDS011;31563;51.744;8.252;2023-05-24T02:16:41;2.42;;;0.80;;
45842;SDS011;31563;51.744;8.252;2023-05-24T02:19:12;3.50;;;0.88;;
45842;SDS011;31563;51.744;8.252;2023-05-24T02:21:40;3.15;;;0.90;;
45842;SDS011;31563;51.744;8.252;2023-05-24T02:24:08;1.95;;;0.60;;
45842;SDS011;31563;51.744;8.252;2023-05-24T02:26:37;1.80;;;0.77;;
45842;SDS011;31563;51.744;8.252;2023-05-24T02:29:06;1.80;;;0.70;;
45842;SDS011;31563;51.744;8.252;2023-05-24T02:31:34;4.03;;;0.90;;
45842;SDS011;31563;51.744;8.252;2023-05-24T02:34:03;2.42;;;1.10;;
45842;SDS011;31563;51.744;8.252;2023-05-24T02:36:33;2.53;;;0.95;;
45842;SDS011;31563;51.744;8.252;2023-05-24T02:39:02;2.35;;;0.85;;
45842;SDS011;31563;51.744;8.252;2023-05-24T02:41:31;1.95;;;0.82;;
45842;SDS011;31563;51.744;8.252;2023-05-24T02:43:59;2.83;;;1.05;;
45842;SDS011;31563;51.744;8.252;2023-05-24T02:46:27;1.98;;;0.82;;
45842;SDS011;31563;51.744;8.252;2023-05-24T02:48:55;2.20;;;0.80;;
45842;SDS011;31563;51.744;8.252;2023-05-24T02:51:25;1.52;;;0.80;;
45842;SDS011;31563;51.744;8.252;2023-05-24T02:53:54;2.63;;;1.17;;
45842;SDS011;31563;51.744;8.252;2023-05-24T02:56:22;2.38;;;0.80;;
45842;SDS011;31563;51.744;8.252;2023-05-24T02:58:52;1.85;;;0.80;;
45842;SDS011;31563;51.744;8.252;2023-05-24T03:01:21;2.63;;;0.80;;
45842;SDS011;31563;51.744;8.252;2023-05-24T03:03:49;2.25;;;0.85;;
45842;SDS011;31563;51.744;8.252;2023-05-24T03:06:18;2.35;;;1.10;;
45842;SDS011;31563;51.744;8.252;2023-05-24T03:08:47;1.95;;;0.77;;
45842;SDS011;31563;51.744;8.252;2023-05-24T03:11:16;1.98;;;1.00;;
45842;SDS011;31563;51.744;8.252;2023-05-24T03:13:47;2.03;;;0.90;;
45842;SDS011;31563;51.744;8.252;2023-05-24T03:16:15;1.95;;;0.90;;
45842;SDS011;31563;51.744;8.252;2023-05-24T03:18:45;1.63;;;0.60;;
45842;SDS011;31563;51.744;8.252;2023-05-24T03:21:15;2.40;;;0.90;;
45842;SDS011;31563;51.744;8.252;2023-05-24T03:23:47;3.00;;;0.80;;
45842;SDS011;31563;51.744;8.252;2023-05-24T03:26:16;1.80;;;0.80;;
45842;SDS011;31563;51.744;8.252;2023-05-24T03:31:15;2.53;;;0.88;;
45842;SDS011;31563;51.744;8.252;2023-05-24T03:33:46;2.47;;;1.08;;
45842;SDS011;31563;51.744;8.252;2023-05-24T03:36:14;1.65;;;0.80;;
45842;SDS011;31563;51.744;8.252;2023-05-24T03:38:42;2.20;;;0.90;;
45842;SDS011;31563;51.744;8.252;2023-05-24T03:41:12;2.88;;;1.02;;
45842;SDS011;31563;51.744;8.252;2023-05-24T03:43:40;1.70;;;0.68;;
45842;SDS011;31563;51.744;8.252;2023-05-24T03:46:08;3.15;;;0.98;;
45842;SDS011;31563;51.744;8.252;2023-05-24T03:48:36;2.83;;;1.17;;
45842;SDS011;31563;51.744;8.252;2023-05-24T03:51:04;1.73;;;0.95;;
45842;SDS011;31563;51.744;8.252;2023-05-24T03:53:34;2.35;;;0.70;;
45842;SDS011;31563;51.744;8.252;2023-05-24T03:56:02;8.20;;;2.20;;
45842;SDS011;31563;51.744;8.252;2023-05-24T03:58:32;8.70;;;2.78;;
45842;SDS011;31563;51.744;8.252;2023-05-24T04:01:00;5.43;;;1.90;;
45842;SDS011;31563;51.744;8.252;2023-05-24T04:03:28;6.95;;;2.70;;
45842;SDS011;31563;51.744;8.252;2023-05-24T04:05:59;10.60;;;3.08;;
45842;SDS011;31563;51.744;8.252;2023-05-24T04:08:27;7.32;;;2.88;;
45842;SDS011;31563;51.744;8.252;2023-05-24T04:10:56;10.95;;;2.90;;
45842;SDS011;31563;51.744;8.252;2023-05-24T04:13:24;11.50;;;2.90;;
45842;SDS011;31563;51.744;8.252;2023-05-24T04:15:54;10.73;;;2.60;;
45842;SDS011;31563;51.744;8.252;2023-05-24T04:18:22;9.52;;;3.00;;
45842;SDS011;31563;51.744;8.252;2023-05-24T04:20:51;10.45;;;3.13;;
45842;SDS011;31563;51.744;8.252;2023-05-24T04:23:19;7.15;;;3.17;;
45842;SDS011;31563;51.744;8.252;2023-05-24T04:25:47;10.50;;;2.97;;
45842;SDS011;31563;51.744;8.252;2023-05-24T04:28:15;10.13;;;2.80;;
45842;SDS011;31563;51.744;8.252;2023-05-24T04:30:43;10.70;;;3.63;;
45842;SDS011;31563;51.744;8.252;2023-05-24T04:33:13;8.63;;;3.10;;
45842;SDS011;31563;51.744;8.252;2023-05-24T04:35:42;10.65;;;2.97;;
45842;SDS011;31563;51.744;8.252;2023-05-24T04:38:10;10.38;;;3.47;;
45842;SDS011;31563;51.744;8.252;2023-05-24T04:40:39;8.80;;;2.75;;
45842;SDS011;31563;51.744;8.252;2023-05-24T04:43:08;11.43;;;3.33;;
45842;SDS011;31563;51.744;8.252;2023-05-24T04:45:37;11.93;;;3.28;;
45842;SDS011;31563;51.744;8.252;2023-05-24T04:48:05;12.32;;;3.50;;
45842;SDS011;31563;51.744;8.252;2023-05-24T04:50:35;8.70;;;2.90;;
45842;SDS011;31563;51.744;8.252;2023-05-24T04:53:03;8.07;;;2.50;;
45842;SDS011;31563;51.744;8.252;2023-05-24T04:55:31;11.55;;;3.17;;
45842;SDS011;31563;51.744;8.252;2023-05-24T04:57:59;11.10;;;2.80;;
45842;SDS011;31563;51.744;8.252;2023-05-24T05:00:27;10.65;;;3.33;;
45842;SDS011;31563;51.744;8.252;2023-05-24T05:02:56;12.25;;;3.85;;
45842;SDS011;31563;51.744;8.252;2023-05-24T05:05:24;11.05;;;3.42;;
45842;SDS011;31563;51.744;8.252;2023-05-24T05:07:54;9.70;;;3.55;;
45842;SDS011;31563;51.744;8.252;2023-05-24T05:10:22;10.82;;;2.85;;
45842;SDS011;31563;51.744;8.252;2023-05-24T05:12:51;8.63;;;3.03;;
45842;SDS011;31563;51.744;8.252;2023-05-24T05:15:20;12.20;;;3.15;;
45842;SDS011;31563;51.744;8.252;2023-05-24T05:17:49;11.73;;;3.20;;
45842;SDS011;31563;51.744;8.252;2023-05-24T05:20:18;7.78;;;2.30;;
45842;SDS011;31563;51.744;8.252;2023-05-24T05:22:46;8.85;;;2.28;;
45842;SDS011;31563;51.744;8.252;2023-05-24T05:25:16;8.70;;;2.47;;
45842;SDS011;31563;51.744;8.252;2023-05-24T05:27:44;8.20;;;2.42;;
45842;SDS011;31563;51.744;8.252;2023-05-24T05:30:12;8.85;;;2.50;;
45842;SDS011;31563;51.744;8.252;2023-05-24T05:32:41;6.50;;;2.03;;
45842;SDS011;31563;51.744;8.252;2023-05-24T05:35:09;7.10;;;2.33;;
45842;SDS011;31563;51.744;8.252;2023-05-24T05:37:37;7.18;;;2.47;;
45842;SDS011;31563;51.744;8.252;2023-05-24T05:40:06;6.03;;;2.20;;
45842;SDS011;31563;51.744;8.252;2023-05-24T05:42:36;6.90;;;2.38;;
45842;SDS011;31563;51.744;8.252;2023-05-24T05:45:04;6.03;;;2.05;;
45842;SDS011;31563;51.744;8.252;2023-05-24T05:47:33;5.63;;;2.25;;
45842;SDS011;31563;51.744;8.252;2023-05-24T05:50:02;7.80;;;2.15;;
45842;SDS011;31563;51.744;8.252;2023-05-24T05:52:30;6.90;;;2.00;;
45842;SDS011;31563;51.744;8.252;2023-05-24T05:54:59;6.75;;;2.08;;
45842;SDS011;31563;51.744;8.252;2023-05-24T05:57:27;6.75;;;2.00;;
45842;SDS011;31563;51.744;8.252;2023-05-24T05:59:56;9.63;;;2.63;;
45842;SDS011;31563;51.744;8.252;2023-05-24T06:02:25;6.28;;;1.98;;
45842;SDS011;31563;51.744;8.252;2023-05-24T06:04:53;6.03;;;1.95;;
45842;SDS011;31563;51.744;8.252;2023-05-24T06:07:21;4.53;;;1.42;;
45842;SDS011;31563;51.744;8.252;2023-05-24T06:09:49;6.75;;;1.88;;
45842;SDS011;31563;51.744;8.252;2023-05-24T06:12:17;7.35;;;2.25;;
45842;SDS011;31563;51.744;8.252;2023-05-24T06:14:45;6.57;;;2.03;;
45842;SDS011;31563;51.744;8.252;2023-05-24T06:17:19;6.35;;;1.88;;
45842;SDS011;31563;51.744;8.252;2023-05-24T06:19:49;5.82;;;1.92;;
45842;SDS011;31563;51.744;8.252;2023-05-24T06:22:19;6.57;;;2.70;;
45842;SDS011;31563;51.744;8.252;2023-05-24T06:24:47;6.97;;;2.72;;
45842;SDS011;31563;51.744;8.252;2023-05-24T06:27:15;7.40;;;2.38;;
45842;SDS011;31563;51.744;8.252;2023-05-24T06:29:43;6.05;;;2.25;;
45842;SDS011;31563;51.744;8.252;2023-05-24T06:32:12;5.50;;;2.10;;
45842;SDS011;31563;51.744;8.252;2023-05-24T06:34:41;5.85;;;1.80;;
45842;SDS011;31563;51.744;8.252;2023-05-24T06:37:09;6.80;;;1.85;;
45842;SDS011;31563;51.744;8.252;2023-05-24T06:39:40;5.90;;;2.30;;
45842;SDS011;31563;51.744;8.252;2023-05-24T06:42:08;6.28;;;2.22;;
45842;SDS011;31563;51.744;8.252;2023-05-24T06:44:36;6.10;;;2.33;;
45842;SDS011;31563;51.744;8.252;2023-05-24T06:47:05;7.13;;;2.25;;
45842;SDS011;31563;51.744;8.252;2023-05-24T06:49:35;6.32;;;2.25;;
45842;SDS011;31563;51.744;8.252;2023-05-24T06:52:05;6.35;;;2.10;;
45842;SDS011;31563;51.744;8.252;2023-05-24T06:54:34;5.78;;;1.90;;
45842;SDS011;31563;51.744;8.252;2023-05-24T06:57:02;8.00;;;2.47;;
45842;SDS011;31563;51.744;8.252;2023-05-24T06:59:31;4.35;;;1.83;;
45842;SDS011;31563;51.744;8.252;2023-05-24T07:01:59;7.82;;;2.60;;
45842;SDS011;31563;51.744;8.252;2023-05-24T07:04:29;5.15;;;2.03;;
45842;SDS011;31563;51.744;8.252;2023-05-24T07:06:57;8.10;;;2.45;;
45842;SDS011;31563;51.744;8.252;2023-05-24T07:09:27;6.93;;;2.25;;
45842;SDS011;31563;51.744;8.252;2023-05-24T07:11:55;6.15;;;2.10;;
45842;SDS011;31563;51.744;8.252;2023-05-24T07:14:23;4.72;;;1.98;;
45842;SDS011;31563;51.744;8.252;2023-05-24T07:16:52;4.80;;;1.70;;
45842;SDS011;31563;51.744;8.252;2023-05-24T07:19:22;15.93;;;5.53;;
45842;SDS011;31563;51.744;8.252;2023-05-24T07:21:54;14.25;;;4.68;;
45842;SDS011;31563;51.744;8.252;2023-05-24T07:24:22;11.65;;;3.88;;
45842;SDS011;31563;51.744;8.252;2023-05-24T07:26:52;10.20;;;2.83;;
45842;SDS011;31563;51.744;8.252;2023-05-24T07:29:22;10.60;;;3.20;;
45842;SDS011;31563;51.744;8.252;2023-05-24T07:31:51;9.32;;;3.40;;
45842;SDS011;31563;51.744;8.252;2023-05-24T07:34:21;10.68;;;3.53;;
45842;SDS011;31563;51.744;8.252;2023-05-24T07:36:52;8.90;;;2.95;;
45842;SDS011;31563;51.744;8.252;2023-05-24T07:39:21;9.35;;;3.72;;
45842;SDS011;31563;51.744;8.252;2023-05-24T07:41:50;10.00;;;3.42;;
45842;SDS011;31563;51.744;8.252;2023-05-24T07:44:20;10.60;;;3.15;;
45842;SDS011;31563;51.744;8.252;2023-05-24T07:46:49;9.57;;;3.00;;
45842;SDS011;31563;51.744;8.252;2023-05-24T07:49:17;9.00;;;2.95;;
45842;SDS011;31563;51.744;8.252;2023-05-24T07:51:45;8.52;;;3.25;;
45842;SDS011;31563;51.744;8.252;2023-05-24T07:54:14;10.52;;;3.58;;
45842;SDS011;31563;51.744;8.252;2023-05-24T07:56:42;8.45;;;3.78;;
45842;SDS011;31563;51.744;8.252;2023-05-24T07:59:11;8.95;;;3.03;;
45842;SDS011;31563;51.744;8.252;2023-05-24T08:01:39;9.82;;;3.15;;
45842;SDS011;31563;51.744;8.252;2023-05-24T08:04:08;6.88;;;2.47;;
45842;SDS011;31563;51.744;8.252;2023-05-24T08:06:37;9.05;;;3.03;;
45842;SDS011;31563;51.744;8.252;2023-05-24T08:09:05;6.68;;;2.85;;
45842;SDS011;31563;51.744;8.252;2023-05-24T08:11:34;9.68;;;3.00;;
45842;SDS011;31563;51.744;8.252;2023-05-24T08:14:03;8.95;;;2.70;;
45842;SDS011;31563;51.744;8.252;2023-05-24T08:16:32;7.20;;;2.60;;
45842;SDS011;31563;51.744;8.252;2023-05-24T08:19:01;5.80;;;2.53;;
45842;SDS011;31563;51.744;8.252;2023-05-24T08:21:29;8.73;;;3.03;;
45842;SDS011;31563;51.744;8.252;2023-05-24T08:23:57;6.97;;;2.80;;
45842;SDS011;31563;51.744;8.252;2023-05-24T08:26:25;7.82;;;2.65;;
45842;SDS011;31563;51.744;8.252;2023-05-24T08:28:53;5.55;;;2.45;;
45842;SDS011;31563;51.744;8.252;2023-05-24T08:31:22;8.10;;;2.90;;
45842;SDS011;31563;51.744;8.252;2023-05-24T08:33:52;5.93;;;2.67;;
45842;SDS011;31563;51.744;8.252;2023-05-24T08:36:21;6.43;;;2.63;;
45842;SDS011;31563;51.744;8.252;2023-05-24T08:38:49;7.13;;;2.58;;
45842;SDS011;31563;51.744;8.252;2023-05-24T08:41:17;7.60;;;2.92;;
45842;SDS011;31563;51.744;8.252;2023-05-24T08:43:46;5.60;;;2.35;;
45842;SDS011;31563;51.744;8.252;2023-05-24T08:46:15;8.43;;;2.78;;
45842;SDS011;31563;51.744;8.252;2023-05-24T08:51:14;7.60;;;3.15;;
45842;SDS011;31563;51.744;8.252;2023-05-24T08:53:43;6.30;;;2.72;;
45842;SDS011;31563;51.744;8.252;2023-05-24T08:56:14;7.45;;;2.63;;
45842;SDS011;31563;51.744;8.252;2023-05-24T08:58:44;11.15;;;3.95;;
45842;SDS011;31563;51.744;8.252;2023-05-24T09:01:13;11.48;;;4.00;;
45842;SDS011;31563;51.744;8.252;2023-05-24T09:03:43;13.13;;;3.85;;
45842;SDS011;31563;51.744;8.252;2023-05-24T09:06:15;9.65;;;3.63;;
45842;SDS011;31563;51.744;8.252;2023-05-24T09:08:44;13.40;;;4.03;;
45842;SDS011;31563;51.744;8.252;2023-05-24T09:11:15;12.25;;;3.75;;
45842;SDS011;31563;51.744;8.252;2023-05-24T09:13:44;13.07;;;4.38;;
45842;SDS011;31563;51.744;8.252;2023-05-24T09:16:14;14.25;;;3.90;;
45842;SDS011;31563;51.744;8.252;2023-05-24T09:18:43;12.57;;;3.85;;
45842;SDS011;31563;51.744;8.252;2023-05-24T09:21:11;10.95;;;3.88;;
45842;SDS011;31563;51.744;8.252;2023-05-24T09:23:41;9.13;;;3.50;;
45842;SDS011;31563;51.744;8.252;2023-05-24T09:28:37;10.02;;;3.13;;
45842;SDS011;31563;51.744;8.252;2023-05-24T09:31:07;8.02;;;3.00;;
45842;SDS011;31563;51.744;8.252;2023-05-24T09:33:35;7.30;;;2.88;;
45842;SDS011;31563;51.744;8.252;2023-05-24T09:36:05;8.45;;;2.78;;
45842;SDS011;31563;51.744;8.252;2023-05-24T09:38:34;8.90;;;3.03;;
45842;SDS011;31563;51.744;8.252;2023-05-24T09:41:04;6.47;;;2.65;;
45842;SDS011;31563;51.744;8.252;2023-05-24T09:43:45;9.05;;;3.20;;
45842;SDS011;31563;51.744;8.252;2023-05-24T09:46:15;9.52;;;3.00;;
45842;SDS011;31563;51.744;8.252;2023-05-24T09:48:54;8.48;;;2.90;;
45842;SDS011;31563;51.744;8.252;2023-05-24T09:51:23;8.73;;;3.50;;
45842;SDS011;31563;51.744;8.252;2023-05-24T09:53:55;6.40;;;2.63;;
45842;SDS011;31563;51.744;8.252;2023-05-24T09:56:25;7.32;;;2.67;;
45842;SDS011;31563;51.744;8.252;2023-05-24T10:01:22;6.25;;;2.90;;
45842;SDS011;31563;51.744;8.252;2023-05-24T10:03:52;7.78;;;2.78;;
45842;SDS011;31563;51.744;8.252;2023-05-24T10:06:21;7.80;;;3.03;;
45842;SDS011;31563;51.744;8.252;2023-05-24T10:08:50;7.00;;;2.95;;
45842;SDS011;31563;51.744;8.252;2023-05-24T10:13:49;5.47;;;2.88;;
45842;SDS011;31563;51.744;8.252;2023-05-24T10:16:17;7.13;;;2.83;;
45842;SDS011;31563;51.744;8.252;2023-05-24T10:18:45;6.03;;;2.65;;
45842;SDS011;31563;51.744;8.252;2023-05-24T10:21:13;5.60;;;2.72;;
45842;SDS011;31563;51.744;8.252;2023-05-24T10:23:44;5.80;;;2.13;;
45842;SDS011;31563;51.744;8.252;2023-05-24T10:26:18;6.78;;;2.55;;
45842;SDS011;31563;51.744;8.252;2023-05-24T10:28:53;6.93;;;2.70;;
45842;SDS011;31563;51.744;8.252;2023-05-24T10:31:27;5.55;;;2.40;;
45842;SDS011;31563;51.744;8.252;2023-05-24T10:33:58;6.60;;;2.45;;
45842;SDS011;31563;51.744;8.252;2023-05-24T10:36:34;6.15;;;2.67;;
45842;SDS011;31563;51.744;8.252;2023-05-24T10:39:06;7.05;;;2.85;;
45842;SDS011;31563;51.744;8.252;2023-05-24T10:41:37;5.43;;;2.08;;
45842;SDS011;31563;51.744;8.252;2023-05-24T10:44:11;5.40;;;2.42;;
45842;SDS011;31563;51.744;8.252;2023-05-24T10:49:48;5.30;;;2.17;;
45842;SDS011;31563;51.744;8.252;2023-05-24T10:52:18;5.78;;;2.45;;
45842;SDS011;31563;51.744;8.252;2023-05-24T10:55:00;4.20;;;1.98;;
45842;SDS011;31563;51.744;8.252;2023-05-24T10:57:30;5.18;;;2.33;;
45842;SDS011;31563;51.744;8.252;2023-05-24T11:02:59;12.25;;;4.20;;
45842;SDS011;31563;51.744;8.252;2023-05-24T11:05:33;12.10;;;4.32;;
45842;SDS011;31563;51.744;8.252;2023-05-24T11:08:02;14.23;;;4.60;;
45842;SDS011;31563;51.744;8.252;2023-05-24T11:10:33;10.82;;;3.97;;
45842;SDS011;31563;51.744;8.252;2023-05-24T11:13:02;10.50;;;3.97;;
45842;SDS011;31563;51.744;8.252;2023-05-24T11:15:35;8.57;;;3.60;;
45842;SDS011;31563;51.744;8.252;2023-05-24T11:20:40;9.68;;;3.63;;
45842;SDS011;31563;51.744;8.252;2023-05-24T11:25:38;8.95;;;3.05;;
45842;SDS011;31563;51.744;8.252;2023-05-24T11:28:07;7.30;;;3.20;;
45842;SDS011;31563;51.744;8.252;2023-05-24T11:30:41;8.45;;;2.72;;
45842;SDS011;31563;51.744;8.252;2023-05-24T11:33:15;8.40;;;3.17;;
45842;SDS011;31563;51.744;8.252;2023-05-24T11:35:45;6.95;;;2.90;;
45842;SDS011;31563;51.744;8.252;2023-05-24T11:38:14;7.93;;;3.10;;
45842;SDS011;31563;51.744;8.252;2023-05-24T11:40:43;5.95;;;2.67;;
45842;SDS011;31563;51.744;8.252;2023-05-24T11:43:12;11.60;;;2.90;;
45842;SDS011;31563;51.744;8.252;2023-05-24T11:45:43;10.05;;;3.03;;
45842;SDS011;31563;51.744;8.252;2023-05-24T11:48:14;9.95;;;3.35;;
45842;SDS011;31563;51.744;8.252;2023-05-24T11:50:43;10.10;;;3.13;;
45842;SDS011;31563;51.744;8.252;2023-05-24T11:53:16;8.80;;;3.08;;
45842;SDS011;31563;51.744;8.252;2023-05-24T11:58:17;8.73;;;2.78;;
45842;SDS011;31563;51.744;8.252;2023-05-24T12:00:50;8.60;;;3.38;;
45842;SDS011;31563;51.744;8.252;2023-05-24T12:03:19;8.00;;;2.47;;
45842;SDS011;31563;51.744;8.252;2023-05-24T12:05:47;8.32;;;3.03;;
45842;SDS011;31563;51.744;8.252;2023-05-24T12:08:16;7.07;;;3.20;;
45842;SDS011;31563;51.744;8.252;2023-05-24T12:10:47;7.10;;;3.08;;
45842;SDS011;31563;51.744;8.252;2023-05-24T12:13:19;10.52;;;3.95;;
45842;SDS011;31563;51.744;8.252;2023-05-24T12:15:50;6.90;;;2.70;;
45842;SDS011;31563;51.744;8.252;2023-05-24T12:18:22;8.68;;;2.90;;
45842;SDS011;31563;51.744;8.252;2023-05-24T12:20:52;6.15;;;2.90;;
45842;SDS011;31563;51.744;8.252;2023-05-24T12:23:22;7.22;;;2.70;;
45842;SDS011;31563;51.744;8.252;2023-05-24T12:25:50;5.15;;;2.40;;
45842;SDS011;31563;51.744;8.252;2023-05-24T12:28:24;7.25;;;2.47;;
45842;SDS011;31563;51.744;8.252;2023-05-24T12:30:54;6.82;;;2.88;;
45842;SDS011;31563;51.744;8.252;2023-05-24T12:35:51;5.95;;;2.97;;
45842;SDS011;31563;51.744;8.252;2023-05-24T12:38:19;6.03;;;2.67;;
45842;SDS011;31563;51.744;8.252;2023-05-24T12:40:51;5.57;;;2.72;;
45842;SDS011;31563;51.744;8.252;2023-05-24T12:43:38;7.10;;;2.65;;
45842;SDS011;31563;51.744;8.252;2023-05-24T12:46:08;6.70;;;2.78;;
45842;SDS011;31563;51.744;8.252;2023-05-24T12:48:36;4.95;;;2.05;;
45842;SDS011;31563;51.744;8.252;2023-05-24T12:51:05;5.73;;;2.13;;
45842;SDS011;31563;51.744;8.252;2023-05-24T12:53:34;6.63;;;2.67;;
45842;SDS011;31563;51.744;8.252;2023-05-24T12:56:02;5.72;;;2.45;;
45842;SDS011;31563;51.744;8.252;2023-05-24T12:58:30;5.03;;;2.17;;
45842;SDS011;31563;51.744;8.252;2023-05-24T13:00:59;5.00;;;2.33;;
45842;SDS011;31563;51.744;8.252;2023-05-24T13:03:28;5.25;;;2.30;;
45842;SDS011;31563;51.744;8.252;2023-05-24T13:05:56;4.93;;;2.25;;
45842;SDS011;31563;51.744;8.252;2023-05-24T13:08:25;6.25;;;2.30;;
45842;SDS011;31563;51.744;8.252;2023-05-24T13:10:55;5.38;;;2.58;;
45842;SDS011;31563;51.744;8.252;2023-05-24T13:13:23;5.45;;;2.47;;
45842;SDS011;31563;51.744;8.252;2023-05-24T13:15:51;4.72;;;2.45;;
45842;SDS011;31563;51.744;8.252;2023-05-24T13:18:20;5.40;;;2.30;;
45842;SDS011;31563;51.744;8.252;2023-05-24T13:20:50;5.38;;;2.33;;
45842;SDS011;31563;51.744;8.252;2023-05-24T13:23:18;5.55;;;2.60;;
45842;SDS011;31563;51.744;8.252;2023-05-24T13:25:46;6.70;;;2.33;;
45842;SDS011;31563;51.744;8.252;2023-05-24T13:28:15;5.72;;;2.05;;
45842;SDS011;31563;51.744;8.252;2023-05-24T13:30:43;4.18;;;2.00;;
45842;SDS011;31563;51.744;8.252;2023-05-24T13:33:11;6.95;;;2.38;;
45842;SDS011;31563;51.744;8.252;2023-05-24T13:35:40;10.55;;;3.28;;
45842;SDS011;31563;51.744;8.252;2023-05-24T13:38:10;8.43;;;3.07;;
45842;SDS011;31563;51.744;8.252;2023-05-24T13:40:38;10.45;;;2.60;;
45842;SDS011;31563;51.744;8.252;2023-05-24T13:43:07;6.77;;;2.37;;
45842;SDS011;31563;51.744;8.252;2023-05-24T13:45:36;7.78;;;2.70;;
45842;SDS011;31563;51.744;8.252;2023-05-24T13:48:04;8.68;;;2.83;;
45842;SDS011;31563;51.744;8.252;2023-05-24T13:50:32;7.13;;;2.63;;
45842;SDS011;31563;51.744;8.252;2023-05-24T13:53:02;6.43;;;2.03;;
45842;SDS011;31563;51.744;8.252;2023-05-24T13:55:32;5.72;;;2.40;;
45842;SDS011;31563;51.744;8.252;2023-05-24T13:58:03;5.93;;;2.20;;
45842;SDS011;31563;51.744;8.252;2023-05-24T14:00:31;5.57;;;2.50;;
45842;SDS011;31563;51.744;8.252;2023-05-24T14:03:01;7.55;;;3.00;;
45842;SDS011;31563;51.744;8.252;2023-05-24T14:05:31;6.60;;;2.40;;
45842;SDS011;31563;51.744;8.252;2023-05-24T14:07:59;7.07;;;2.40;;
45842;SDS011;31563;51.744;8.252;2023-05-24T14:10:33;7.25;;;2.90;;
45842;SDS011;31563;51.744;8.252;2023-05-24T14:13:02;7.70;;;2.65;;
45842;SDS011;31563;51.744;8.252;2023-05-24T14:15:51;8.20;;;2.33;;
45842;SDS011;31563;51.744;8.252;2023-05-24T14:18:19;6.07;;;2.05;;
45842;SDS011;31563;51.744;8.252;2023-05-24T14:20:47;6.90;;;2.33;;
45842;SDS011;31563;51.744;8.252;2023-05-24T14:23:16;4.05;;;2.00;;
45842;SDS011;31563;51.744;8.252;2023-05-24T14:25:45;5.75;;;2.38;;
45842;SDS011;31563;51.744;8.252;2023-05-24T14:30:41;8.25;;;2.22;;
45842;SDS011;31563;51.744;8.252;2023-05-24T14:33:09;5.40;;;2.10;;
45842;SDS011;31563;51.744;8.252;2023-05-24T14:35:38;10.05;;;2.40;;
45842;SDS011;31563;51.744;8.252;2023-05-24T14:38:08;9.15;;;2.80;;
45842;SDS011;31563;51.744;8.252;2023-05-24T14:40:37;6.05;;;2.20;;
45842;SDS011;31563;51.744;8.252;2023-05-24T14:43:07;6.35;;;2.40;;
45842;SDS011;31563;51.744;8.252;2023-05-24T14:45:36;5.30;;;2.13;;
45842;SDS011;31563;51.744;8.252;2023-05-24T14:48:07;5.18;;;2.47;;
45842;SDS011;31563;51.744;8.252;2023-05-24T14:50:37;4.47;;;2.30;;
45842;SDS011;31563;51.744;8.252;2023-05-24T14:53:06;4.60;;;1.95;;
45842;SDS011;31563;51.744;8.252;2023-05-24T14:55:37;6.32;;;2.08;;
45842;SDS011;31563;51.744;8.252;2023-05-24T14:58:09;7.13;;;2.30;;
45842;SDS011;31563;51.744;8.252;2023-05-24T15:00:38;12.05;;;2.85;;
45842;SDS011;31563;51.744;8.252;2023-05-24T15:03:08;6.82;;;2.58;;
45842;SDS011;31563;51.744;8.252;2023-05-24T15:05:38;10.32;;;2.42;;
45842;SDS011;31563;51.744;8.252;2023-05-24T15:08:07;8.65;;;2.80;;
45842;SDS011;31563;51.744;8.252;2023-05-24T15:10:36;5.47;;;2.45;;
45842;SDS011;31563;51.744;8.252;2023-05-24T15:13:05;8.02;;;2.50;;
45842;SDS011;31563;51.744;8.252;2023-05-24T15:15:35;10.25;;;2.83;;
45842;SDS011;31563;51.744;8.252;2023-05-24T15:20:31;7.15;;;2.70;;
45842;SDS011;31563;51.744;8.252;2023-05-24T15:23:01;8.32;;;2.67;;
45842;SDS011;31563;51.744;8.252;2023-05-24T15:25:29;10.35;;;2.88;;
45842;SDS011;31563;51.744;8.252;2023-05-24T15:27:57;8.27;;;2.80;;
45842;SDS011;31563;51.744;8.252;2023-05-24T15:30:26;11.52;;;3.88;;
45842;SDS011;31563;51.744;8.252;2023-05-24T15:32:56;11.20;;;3.50;;
45842;SDS011;31563;51.744;8.252;2023-05-24T15:35:24;9.63;;;3.00;;